LIBD/BRI METAR and TAF weather

Enter ICAO airport designator
Station Type Date Time Source
LIBD METAR 2019/10/23 14:20 UTC NOAA

LIBD 231420Z 07006KT 040V100 8000 NSC 20/16 Q1019


Station Type Date Time Source
LIBD Decoded METAR 2019/10/23 14:20 UTC NOAA

Bari / Palese Macchie, Italy (LIBD) 41-08N 016-47E 49M
Oct 23, 2019 - 10:20 AM EDT / 2019.10.23 1420 UTC
Wind: from the ENE (070 degrees) at 7 MPH (6 KT) (direction variable):0
Visibility: 4 mile(s):0
Temperature: 68 F (20 C)
Dew Point: 60 F (16 C)
Relative Humidity: 77%
Pressure (altimeter): 30.09 in. Hg (1019 hPa)
ob: LIBD 231420Z 07006KT 040V100 8000 NSC 20/16 Q1019
cycle: 14

Station Type Date Time Source
LIBD TAF 2019/10/23 12:22 UTC NOAA

TAF LIBD 231100Z 2312/2412 VRB05KT 9999 FEW040
TEMPO 2323/2406 3000 BR

Example: see airport list